createdAt,value
2023-05-02T00:01:50.324Z,28.33
2023-05-02T00:04:17.490Z,28.00
2023-05-02T00:06:46.783Z,26.50
2023-05-02T00:09:15.763Z,27.45
2023-05-02T00:11:42.868Z,26.48
2023-05-02T00:14:10.000Z,26.75
2023-05-02T00:16:37.133Z,26.23
2023-05-02T00:19:04.315Z,26.15
2023-05-02T00:21:31.505Z,27.95
2023-05-02T00:23:58.844Z,27.00
2023-05-02T00:26:26.976Z,27.55
2023-05-02T00:28:54.064Z,27.38
2023-05-02T00:31:21.100Z,27.17
2023-05-02T00:33:48.109Z,26.38
2023-05-02T00:36:16.556Z,26.77
2023-05-02T00:38:43.866Z,27.02
2023-05-02T00:41:11.087Z,26.25
2023-05-02T00:43:41.436Z,27.80
2023-05-02T00:46:08.835Z,26.33
2023-05-02T00:48:36.704Z,27.88
2023-05-02T00:51:09.138Z,28.42
2023-05-02T00:53:36.814Z,29.30
2023-05-02T00:56:04.124Z,29.88
2023-05-02T00:58:31.428Z,30.80
2023-05-02T01:01:19.657Z,29.60
2023-05-02T01:04:17.453Z,30.17
2023-05-02T01:07:17.928Z,28.98
2023-05-02T01:10:16.765Z,28.73
2023-05-02T01:12:47.632Z,31.08
2023-05-02T01:15:20.767Z,30.98
2023-05-02T01:17:49.858Z,31.35
2023-05-02T01:20:23.771Z,31.85
2023-05-02T01:22:51.653Z,31.48
2023-05-02T01:25:41.739Z,33.05
2023-05-02T01:28:14.429Z,32.55
2023-05-02T01:30:44.865Z,34.67
2023-05-02T01:33:15.139Z,34.78
2023-05-02T01:35:45.016Z,34.20
2023-05-02T01:38:16.848Z,34.50
2023-05-02T01:40:47.002Z,34.38
2023-05-02T01:43:15.910Z,34.30
2023-05-02T01:45:47.414Z,34.58
2023-05-02T01:48:16.443Z,34.58
2023-05-02T01:50:45.851Z,35.78
2023-05-02T01:53:15.407Z,36.60
2023-05-02T01:55:46.036Z,35.90
2023-05-02T01:58:14.873Z,34.80
2023-05-02T02:00:45.341Z,35.20
2023-05-02T02:03:13.330Z,37.38
2023-05-02T02:05:41.874Z,35.17
2023-05-02T02:08:09.305Z,35.45
2023-05-02T02:10:41.231Z,36.22
2023-05-02T02:13:18.256Z,37.08
2023-05-02T02:15:49.321Z,35.65
2023-05-02T02:18:22.358Z,37.65
2023-05-02T02:20:51.407Z,37.88
2023-05-02T02:23:21.153Z,38.67
2023-05-02T02:25:49.594Z,39.47
2023-05-02T02:28:16.661Z,41.42
2023-05-02T02:30:44.195Z,38.83
2023-05-02T02:33:11.299Z,41.28
2023-05-02T02:35:42.869Z,38.58
2023-05-02T02:38:16.215Z,40.58
2023-05-02T02:40:53.344Z,41.30
2023-05-02T02:43:29.375Z,42.25
2023-05-02T02:46:50.392Z,42.03
2023-05-02T02:49:35.111Z,41.50
2023-05-02T02:52:17.880Z,43.20
2023-05-02T02:54:52.699Z,44.72
2023-05-02T02:57:29.146Z,44.17
2023-05-02T02:59:56.126Z,45.78
2023-05-02T03:02:29.572Z,45.83
2023-05-02T03:04:57.953Z,44.25
2023-05-02T03:07:28.915Z,46.47
2023-05-02T03:09:56.077Z,41.90
2023-05-02T03:12:23.247Z,42.55
2023-05-02T03:14:51.155Z,43.25
2023-05-02T03:17:18.684Z,45.25
2023-05-02T03:19:46.004Z,41.92
2023-05-02T03:22:13.062Z,41.13
2023-05-02T03:24:40.087Z,42.50
2023-05-02T03:27:07.335Z,40.17
2023-05-02T03:29:34.381Z,38.50
2023-05-02T03:32:01.454Z,37.70
2023-05-02T03:34:28.852Z,36.85
2023-05-02T03:36:55.957Z,36.40
2023-05-02T03:39:22.976Z,35.97
2023-05-02T03:41:50.097Z,35.17
2023-05-02T03:44:17.266Z,34.42
2023-05-02T03:46:44.544Z,35.55
2023-05-02T03:49:12.218Z,35.20
2023-05-02T03:51:39.452Z,34.55
2023-05-02T03:54:07.649Z,33.38
2023-05-02T03:56:34.700Z,29.88
2023-05-02T03:59:01.808Z,31.48
2023-05-02T04:01:29.111Z,28.75
2023-05-02T04:03:56.170Z,30.70
2023-05-02T04:06:23.405Z,29.55
2023-05-02T04:08:50.442Z,30.98
2023-05-02T04:11:17.474Z,32.00
2023-05-02T04:13:44.509Z,31.95
2023-05-02T04:16:11.549Z,30.95
2023-05-02T04:18:38.696Z,32.13
2023-05-02T04:21:10.017Z,32.78
2023-05-02T04:23:37.136Z,32.20
2023-05-02T04:26:04.205Z,31.52
2023-05-02T04:28:31.339Z,31.05
2023-05-02T04:30:58.525Z,32.15
2023-05-02T04:33:25.880Z,31.65
2023-05-02T04:35:54.481Z,32.30
2023-05-02T04:38:21.750Z,31.10
2023-05-02T04:40:52.458Z,31.35
2023-05-02T04:43:19.520Z,32.35
2023-05-02T04:45:46.704Z,32.80
2023-05-02T04:48:14.198Z,31.98
2023-05-02T04:50:41.272Z,31.55
2023-05-02T04:53:08.367Z,30.83
2023-05-02T04:55:35.425Z,30.15
2023-05-02T04:58:02.581Z,30.63
2023-05-02T05:00:29.640Z,29.85
2023-05-02T05:02:59.137Z,30.05
2023-05-02T05:05:27.255Z,28.27
2023-05-02T05:07:54.408Z,28.73
2023-05-02T05:10:21.422Z,28.42
2023-05-02T05:12:49.555Z,26.50
2023-05-02T05:15:17.060Z,27.30
2023-05-02T05:17:44.484Z,27.15
2023-05-02T05:20:11.728Z,27.40
2023-05-02T05:22:39.758Z,26.60
2023-05-02T05:25:07.512Z,25.25
2023-05-02T05:27:35.418Z,26.17
2023-05-02T05:30:03.697Z,26.65
2023-05-02T05:32:30.948Z,26.15
2023-05-02T05:34:58.130Z,25.23
2023-05-02T05:37:25.313Z,27.50
2023-05-02T05:39:52.452Z,26.67
2023-05-02T05:42:19.502Z,27.08
2023-05-02T05:44:46.534Z,26.73
2023-05-02T05:47:18.973Z,27.00
2023-05-02T05:49:46.614Z,27.88
2023-05-02T05:52:13.599Z,25.40
2023-05-02T05:54:40.832Z,29.00
2023-05-02T05:57:07.850Z,28.67
2023-05-02T05:59:36.546Z,28.67
2023-05-02T06:02:05.090Z,28.35
2023-05-02T06:04:33.096Z,29.52
2023-05-02T06:07:00.402Z,29.48
2023-05-02T06:09:27.470Z,29.90
2023-05-02T06:11:55.420Z,28.08
2023-05-02T06:14:22.612Z,26.27
2023-05-02T06:16:49.662Z,25.80
2023-05-02T06:19:16.722Z,26.00
2023-05-02T06:21:43.770Z,24.88
2023-05-02T06:24:10.949Z,25.00
2023-05-02T06:26:37.980Z,24.33
2023-05-02T06:29:05.070Z,25.85
2023-05-02T06:31:32.113Z,22.88
2023-05-02T06:33:59.204Z,23.67
2023-05-02T06:36:26.212Z,25.05
2023-05-02T06:38:53.258Z,24.48
2023-05-02T06:41:20.927Z,23.55
2023-05-02T06:43:48.080Z,24.35
2023-05-02T06:46:15.429Z,24.13
2023-05-02T06:48:42.519Z,23.38
2023-05-02T06:51:09.568Z,21.90
2023-05-02T06:53:36.624Z,22.52
2023-05-02T06:56:03.843Z,21.88
2023-05-02T06:58:31.062Z,21.38
2023-05-02T07:00:58.226Z,22.08
2023-05-02T07:03:25.331Z,22.85
2023-05-02T07:05:52.310Z,23.67
2023-05-02T07:08:21.626Z,24.00
2023-05-02T07:10:48.691Z,22.15
2023-05-02T07:13:15.862Z,20.38
2023-05-02T07:15:43.521Z,21.33
2023-05-02T07:18:11.502Z,20.80
2023-05-02T07:20:39.145Z,24.00
2023-05-02T07:23:06.240Z,24.23
2023-05-02T07:25:33.366Z,19.02
2023-05-02T07:28:00.475Z,20.00
2023-05-02T07:30:27.503Z,18.77
2023-05-02T07:32:54.563Z,18.92
2023-05-02T07:35:21.823Z,19.30
2023-05-02T07:37:49.050Z,18.83
2023-05-02T07:40:16.214Z,19.55
2023-05-02T07:42:44.418Z,20.23
2023-05-02T07:45:11.718Z,19.70
2023-05-02T07:47:38.853Z,21.13
2023-05-02T07:50:07.003Z,21.13
2023-05-02T07:52:34.165Z,21.15
2023-05-02T07:55:01.171Z,21.00
2023-05-02T07:57:28.248Z,21.17
2023-05-02T07:59:57.470Z,20.05
2023-05-02T08:02:25.130Z,17.33
2023-05-02T08:04:52.611Z,14.32
2023-05-02T08:07:19.747Z,13.45
2023-05-02T08:09:46.876Z,11.63
2023-05-02T08:12:13.882Z,10.00
2023-05-02T08:14:40.974Z,9.70
2023-05-02T08:17:08.012Z,8.50
2023-05-02T08:19:35.170Z,7.75
2023-05-02T08:22:02.301Z,7.75
2023-05-02T08:24:31.063Z,6.60
2023-05-02T08:26:58.163Z,6.35
2023-05-02T08:29:25.323Z,6.40
2023-05-02T08:31:52.423Z,6.57
2023-05-02T08:34:19.586Z,6.75
2023-05-02T08:36:47.594Z,6.22
2023-05-02T08:39:14.707Z,6.28
2023-05-02T08:41:41.938Z,6.35
2023-05-02T08:44:09.125Z,6.20
2023-05-02T08:46:38.455Z,6.18
2023-05-02T08:49:06.852Z,6.28
2023-05-02T08:51:36.301Z,6.00
2023-05-02T08:54:04.433Z,6.80
2023-05-02T08:56:32.829Z,7.70
2023-05-02T08:58:59.853Z,7.22
2023-05-02T09:01:31.259Z,8.88
2023-05-02T09:03:59.811Z,8.13
2023-05-02T09:06:30.289Z,9.18
2023-05-02T09:09:00.712Z,9.43
2023-05-02T09:11:27.941Z,9.65
2023-05-02T09:13:56.205Z,8.25
2023-05-02T09:16:25.889Z,8.50
2023-05-02T09:18:56.018Z,7.55
2023-05-02T09:21:25.599Z,7.68
2023-05-02T09:23:56.608Z,7.93
2023-05-02T09:26:37.515Z,7.40
2023-05-02T09:29:05.590Z,9.02
2023-05-02T09:31:54.789Z,8.65
2023-05-02T09:34:23.157Z,8.60
2023-05-02T09:36:54.063Z,8.43
2023-05-02T09:39:25.587Z,7.82
2023-05-02T09:41:53.480Z,8.73
2023-05-02T09:44:23.195Z,9.57
2023-05-02T09:46:55.235Z,11.80
2023-05-02T09:49:42.725Z,13.25
2023-05-02T09:52:14.723Z,13.68
2023-05-02T09:54:42.266Z,13.75
2023-05-02T09:57:11.218Z,13.88
2023-05-02T09:59:39.991Z,12.63
2023-05-02T10:02:09.805Z,11.13
2023-05-02T10:04:37.777Z,9.73
2023-05-02T10:07:06.754Z,8.35
2023-05-02T10:09:37.241Z,6.72
2023-05-02T10:12:05.351Z,6.38
2023-05-02T10:14:39.719Z,5.15
2023-05-02T10:17:16.219Z,5.05
2023-05-02T10:19:53.052Z,4.30
2023-05-02T10:22:21.326Z,4.00
2023-05-02T10:24:52.683Z,3.78
2023-05-02T10:27:20.052Z,3.55
2023-05-02T10:29:47.787Z,3.50
2023-05-02T10:32:18.265Z,3.40
2023-05-02T10:34:47.876Z,3.40
2023-05-02T10:37:16.323Z,3.50
2023-05-02T10:39:43.519Z,3.03
2023-05-02T10:42:11.103Z,3.58
2023-05-02T10:44:40.181Z,4.30
2023-05-02T10:47:27.892Z,4.10
2023-05-02T10:50:03.148Z,3.85
2023-05-02T10:52:41.609Z,4.55
2023-05-02T10:55:19.530Z,4.55
2023-05-02T10:58:01.249Z,4.72
2023-05-02T11:00:30.369Z,4.90
2023-05-02T11:02:57.967Z,4.65
2023-05-02T11:05:26.901Z,5.15
2023-05-02T11:08:23.155Z,5.80
2023-05-02T11:10:50.461Z,5.72
2023-05-02T11:13:37.462Z,6.00
2023-05-02T11:16:04.795Z,5.70
2023-05-02T11:19:01.472Z,5.63
2023-05-02T11:21:31.278Z,6.63
2023-05-02T11:24:35.902Z,6.10
2023-05-02T11:27:30.588Z,5.45
2023-05-02T11:30:02.944Z,6.32
2023-05-02T11:32:45.738Z,6.03
2023-05-02T11:35:23.591Z,6.90
2023-05-02T11:38:13.806Z,7.15
2023-05-02T11:40:41.367Z,7.32
2023-05-02T11:43:16.796Z,6.63
2023-05-02T11:45:44.116Z,6.45
2023-05-02T11:48:13.355Z,7.13
2023-05-02T11:50:50.196Z,7.25
2023-05-02T11:53:23.460Z,7.10
2023-05-02T11:55:56.065Z,7.15
2023-05-02T11:58:25.782Z,6.57
2023-05-02T12:00:53.927Z,7.03
2023-05-02T12:03:31.406Z,6.20
2023-05-02T12:06:11.352Z,6.30
2023-05-02T12:08:39.787Z,6.95
2023-05-02T12:11:07.491Z,6.70
2023-05-02T12:13:34.929Z,6.05
2023-05-02T12:16:02.619Z,6.22
2023-05-02T12:18:29.955Z,6.13
2023-05-02T12:20:57.154Z,6.53
2023-05-02T12:23:26.953Z,6.15
2023-05-02T12:25:54.336Z,5.88
2023-05-02T12:28:23.435Z,5.72
2023-05-02T12:30:51.741Z,5.20
2023-05-02T12:33:19.106Z,5.25
2023-05-02T12:35:47.677Z,5.05
2023-05-02T12:38:17.768Z,5.15
2023-05-02T12:41:03.231Z,5.47
2023-05-02T12:43:46.502Z,4.78
2023-05-02T12:46:13.597Z,5.60
2023-05-02T12:48:40.993Z,6.28
2023-05-02T12:51:22.100Z,6.30
2023-05-02T12:53:49.172Z,6.07
2023-05-02T12:56:17.224Z,5.60
2023-05-02T12:58:48.804Z,5.75
2023-05-02T13:01:16.159Z,5.82
2023-05-02T13:03:44.882Z,5.63
2023-05-02T13:06:15.156Z,5.18
2023-05-02T13:08:42.213Z,6.22
2023-05-02T13:11:09.361Z,5.95
2023-05-02T13:13:36.432Z,5.55
2023-05-02T13:16:05.266Z,5.47
2023-05-02T13:18:32.503Z,5.97
2023-05-02T13:20:59.610Z,6.00
2023-05-02T13:23:29.057Z,7.22
2023-05-02T13:25:56.159Z,6.80
2023-05-02T13:28:23.422Z,6.80
2023-05-02T13:30:51.237Z,6.28
2023-05-02T13:33:18.561Z,6.60
2023-05-02T13:35:45.671Z,6.30
2023-05-02T13:38:12.899Z,6.55
2023-05-02T13:40:39.965Z,6.55
2023-05-02T13:43:07.022Z,7.38
2023-05-02T13:45:37.148Z,6.57
2023-05-02T13:48:05.859Z,6.70
2023-05-02T13:50:37.537Z,7.13
2023-05-02T13:53:04.618Z,7.20
2023-05-02T13:55:31.852Z,6.65
2023-05-02T13:57:58.946Z,6.43
2023-05-02T14:00:28.429Z,7.03
2023-05-02T14:02:55.987Z,6.63
2023-05-02T14:05:23.177Z,7.30
2023-05-02T14:07:51.341Z,7.60
2023-05-02T14:10:18.431Z,6.80
2023-05-02T14:12:45.577Z,6.80
2023-05-02T14:15:12.871Z,7.43
2023-05-02T14:17:39.921Z,7.13
2023-05-02T14:20:10.893Z,6.95
2023-05-02T14:22:37.980Z,6.78
2023-05-02T14:25:06.136Z,7.30
2023-05-02T14:27:33.175Z,7.07
2023-05-02T14:30:00.661Z,7.47
2023-05-02T14:32:28.291Z,7.53
2023-05-02T14:34:55.396Z,7.97
2023-05-02T14:37:22.471Z,8.02
2023-05-02T14:39:54.896Z,8.65
2023-05-02T14:42:28.220Z,8.25
2023-05-02T14:44:57.460Z,8.00
2023-05-02T14:47:28.973Z,7.40
2023-05-02T14:49:56.071Z,7.45
2023-05-02T14:52:23.300Z,7.53
2023-05-02T14:54:50.279Z,7.95
2023-05-02T14:57:17.338Z,8.05
2023-05-02T14:59:44.360Z,8.48
2023-05-02T15:02:11.724Z,8.63
2023-05-02T15:04:38.917Z,8.48
2023-05-02T15:07:06.373Z,8.70
2023-05-02T15:09:33.437Z,9.68
2023-05-02T15:12:00.473Z,9.25
2023-05-02T15:14:27.586Z,8.45
2023-05-02T15:16:55.033Z,8.60
2023-05-02T15:19:24.112Z,9.40
2023-05-02T15:21:53.414Z,8.68
2023-05-02T15:24:20.513Z,9.35
2023-05-02T15:26:47.873Z,9.70
2023-05-02T15:29:15.259Z,8.20
2023-05-02T15:31:42.538Z,8.75
2023-05-02T15:34:09.786Z,8.75
2023-05-02T15:36:40.769Z,9.13
2023-05-02T15:39:08.164Z,8.95
2023-05-02T15:41:35.360Z,8.63
2023-05-02T15:44:02.619Z,7.15
2023-05-02T15:46:29.676Z,7.20
2023-05-02T15:48:56.832Z,7.47
2023-05-02T15:51:24.045Z,6.45
2023-05-02T15:53:52.605Z,7.25
2023-05-02T15:56:21.684Z,6.57
2023-05-02T15:58:49.062Z,6.20
2023-05-02T16:01:16.413Z,5.97
2023-05-02T16:03:43.684Z,6.18
2023-05-02T16:06:11.049Z,5.43
2023-05-02T16:08:38.309Z,4.82
2023-05-02T16:11:05.411Z,4.97
2023-05-02T16:13:33.174Z,5.07
2023-05-02T16:16:00.429Z,4.93
2023-05-02T16:18:30.065Z,5.00
2023-05-02T16:20:57.576Z,4.32
2023-05-02T16:23:26.028Z,4.43
2023-05-02T16:26:00.181Z,4.03
2023-05-02T16:28:27.497Z,4.35
2023-05-02T16:30:54.767Z,4.13
2023-05-02T16:33:22.538Z,3.47
2023-05-02T16:35:49.832Z,4.07
2023-05-02T16:38:17.190Z,4.00
2023-05-02T16:40:44.293Z,3.80
2023-05-02T16:43:11.470Z,3.50
2023-05-02T16:45:38.847Z,3.75
2023-05-02T16:48:06.976Z,3.97
2023-05-02T16:50:34.077Z,3.28
2023-05-02T16:53:01.148Z,4.20
2023-05-02T16:55:29.350Z,3.72
2023-05-02T16:57:56.600Z,3.92
2023-05-02T17:00:23.887Z,4.13
2023-05-02T17:02:55.310Z,3.50
2023-05-02T17:05:23.048Z,3.35
2023-05-02T17:07:50.110Z,3.78
2023-05-02T17:10:17.259Z,3.25
2023-05-02T17:12:44.589Z,3.78
2023-05-02T17:15:11.711Z,4.00
2023-05-02T17:17:38.805Z,3.50
2023-05-02T17:20:06.566Z,3.60
2023-05-02T17:22:35.866Z,3.78
2023-05-02T17:25:02.984Z,4.40
2023-05-02T17:27:30.064Z,4.53
2023-05-02T17:29:57.158Z,4.07
2023-05-02T17:32:24.315Z,3.92
2023-05-02T17:34:51.513Z,4.28
2023-05-02T17:37:18.609Z,4.38
2023-05-02T17:39:45.994Z,4.13
2023-05-02T17:42:13.025Z,4.43
2023-05-02T17:44:40.121Z,3.63
2023-05-02T17:47:08.512Z,3.67
2023-05-02T17:49:35.730Z,3.63
2023-05-02T17:52:02.749Z,3.67
2023-05-02T17:54:29.844Z,4.18
2023-05-02T17:56:57.439Z,3.63
2023-05-02T17:59:24.495Z,4.07
2023-05-02T18:01:52.155Z,4.47
2023-05-02T18:04:19.397Z,3.97
2023-05-02T18:06:46.545Z,4.28
2023-05-02T18:09:13.620Z,4.22
2023-05-02T18:11:40.728Z,3.83
2023-05-02T18:14:07.789Z,3.90
2023-05-02T18:16:36.478Z,4.25
2023-05-02T18:19:03.801Z,4.13
2023-05-02T18:21:34.981Z,4.05
2023-05-02T18:24:02.058Z,4.28
2023-05-02T18:26:29.084Z,3.97
2023-05-02T18:28:56.133Z,4.50
2023-05-02T18:31:24.013Z,4.70
2023-05-02T18:33:54.149Z,4.53
2023-05-02T18:36:29.568Z,4.03
2023-05-02T18:38:56.727Z,4.22
2023-05-02T18:41:24.055Z,4.18
2023-05-02T18:43:51.114Z,4.47
2023-05-02T18:46:18.200Z,4.28
2023-05-02T18:48:45.323Z,4.72
2023-05-02T18:51:12.505Z,4.60
2023-05-02T18:53:39.521Z,4.78
2023-05-02T18:56:13.535Z,4.63
2023-05-02T18:58:41.446Z,4.47
2023-05-02T19:01:13.332Z,4.90
2023-05-02T19:03:41.008Z,4.55
2023-05-02T19:06:11.902Z,5.45
2023-05-02T19:08:40.540Z,4.63
2023-05-02T19:11:07.800Z,5.78
2023-05-02T19:13:36.493Z,4.93
2023-05-02T19:16:03.986Z,5.15
2023-05-02T19:18:31.144Z,5.45
2023-05-02T19:20:58.726Z,5.95
2023-05-02T19:23:25.751Z,6.10
2023-05-02T19:25:53.071Z,5.70
2023-05-02T19:28:21.928Z,6.50
2023-05-02T19:30:48.977Z,6.25
2023-05-02T19:33:16.061Z,6.25
2023-05-02T19:35:43.131Z,5.60
2023-05-02T19:38:10.156Z,5.93
2023-05-02T19:40:37.261Z,6.35
2023-05-02T19:43:04.947Z,6.40
2023-05-02T19:45:34.138Z,6.40
2023-05-02T19:48:01.281Z,6.40
2023-05-02T19:50:28.303Z,5.88
2023-05-02T19:52:59.047Z,6.47
2023-05-02T19:55:26.096Z,7.22
2023-05-02T19:57:53.096Z,5.85
2023-05-02T20:00:20.207Z,6.63
2023-05-02T20:02:49.947Z,6.13
2023-05-02T20:05:19.568Z,6.32
2023-05-02T20:07:46.761Z,6.20
2023-05-02T20:10:14.134Z,5.40
2023-05-02T20:12:44.938Z,6.03
2023-05-02T20:15:13.158Z,5.70
2023-05-02T20:17:40.446Z,6.25
2023-05-02T20:20:08.587Z,6.43
2023-05-02T20:22:35.828Z,6.22
2023-05-02T20:25:03.770Z,5.65
2023-05-02T20:27:32.168Z,6.32
2023-05-02T20:29:59.668Z,6.03
2023-05-02T20:32:27.159Z,5.80
2023-05-02T20:34:54.278Z,5.70
2023-05-02T20:37:21.441Z,5.65
2023-05-02T20:39:48.840Z,5.70
2023-05-02T20:42:23.294Z,5.88
2023-05-02T20:45:01.904Z,6.30
2023-05-02T20:47:30.403Z,6.13
2023-05-02T20:49:57.631Z,5.70
2023-05-02T20:52:24.683Z,5.45
2023-05-02T20:54:56.066Z,5.68
2023-05-02T20:57:24.388Z,5.78
2023-05-02T20:59:51.557Z,5.57
2023-05-02T21:02:18.646Z,5.43
2023-05-02T21:04:45.931Z,6.15
2023-05-02T21:07:13.023Z,5.70
2023-05-02T21:09:40.050Z,5.55
2023-05-02T21:12:07.103Z,5.57
2023-05-02T21:14:34.455Z,5.95
2023-05-02T21:17:01.646Z,5.72
2023-05-02T21:19:28.684Z,5.22
2023-05-02T21:21:55.991Z,4.80
2023-05-02T21:24:23.050Z,6.05
2023-05-02T21:26:50.088Z,5.53
2023-05-02T21:29:17.339Z,5.82
2023-05-02T21:31:45.101Z,5.72
2023-05-02T21:34:12.211Z,6.03
2023-05-02T21:36:39.272Z,5.20
2023-05-02T21:39:06.365Z,5.53
2023-05-02T21:41:35.530Z,5.45
2023-05-02T21:44:02.569Z,5.70
2023-05-02T21:46:29.658Z,5.68
2023-05-02T21:48:56.978Z,5.32
2023-05-02T21:51:23.983Z,5.97
2023-05-02T21:53:52.693Z,5.75
2023-05-02T21:56:19.728Z,5.45
2023-05-02T21:58:49.736Z,5.55
2023-05-02T22:01:17.272Z,5.70
2023-05-02T22:03:44.486Z,5.50
2023-05-02T22:06:11.517Z,5.55
2023-05-02T22:08:39.140Z,6.50
2023-05-02T22:11:09.561Z,7.18
2023-05-02T22:13:37.119Z,5.22
2023-05-02T22:16:04.533Z,5.88
2023-05-02T22:18:31.676Z,5.68
2023-05-02T22:20:58.769Z,5.80
2023-05-02T22:23:26.073Z,5.80
2023-05-02T22:25:53.134Z,5.88
2023-05-02T22:28:20.490Z,5.53
2023-05-02T22:30:47.623Z,5.70
2023-05-02T22:33:14.746Z,5.72
2023-05-02T22:35:41.858Z,5.40
2023-05-02T22:38:11.906Z,6.25
2023-05-02T22:40:38.969Z,5.63
2023-05-02T22:43:06.033Z,6.28
2023-05-02T22:45:34.019Z,6.25
2023-05-02T22:48:01.067Z,6.03
2023-05-02T22:50:28.447Z,5.60
2023-05-02T22:52:57.361Z,6.47
2023-05-02T22:55:24.912Z,5.82
2023-05-02T22:57:52.253Z,5.85
2023-05-02T23:00:19.634Z,6.53
2023-05-02T23:02:46.813Z,6.70
2023-05-02T23:05:14.348Z,6.18
2023-05-02T23:07:41.439Z,6.15
2023-05-02T23:10:09.662Z,6.20
2023-05-02T23:12:36.733Z,6.72
2023-05-02T23:15:03.967Z,5.70
2023-05-02T23:17:31.127Z,6.15
2023-05-02T23:19:58.959Z,6.15
2023-05-02T23:22:26.091Z,6.07
2023-05-02T23:24:53.168Z,6.43
2023-05-02T23:27:20.127Z,6.95
2023-05-02T23:29:49.153Z,6.28
2023-05-02T23:32:17.353Z,6.65
2023-05-02T23:34:44.692Z,6.80
2023-05-02T23:37:12.905Z,6.03
2023-05-02T23:39:40.345Z,5.97
2023-05-02T23:42:08.106Z,6.25
2023-05-02T23:44:35.211Z,6.15
2023-05-02T23:47:02.309Z,6.53
2023-05-02T23:49:29.428Z,6.90
2023-05-02T23:51:56.698Z,6.15
2023-05-02T23:54:23.832Z,6.50
2023-05-02T23:56:53.003Z,6.00
2023-05-02T23:59:20.057Z,5.80
